NCAR-RAP Real-Time Weather Data

Output produced by METARs form (12 August 2020  18:05 UTC)
found at http://weather.rap.ucar.edu/surface/
 
KMIA 121753Z 10009KT 10SM SCT025 BKN032 BKN210 BKN250 32/24 A3002 RMK AO2 LTG DSNT NE SLP164 CB DSNT ALQDS 60058 T03170244 10317 20261 58010
KMIA 121653Z 12006KT 10SM FEW025 FEW180 BKN210 31/25 A3004 RMK AO2 SLP172 T03060250
KMIA 121553Z 12007KT 10SM FEW030 FEW150 BKN200 30/23 A3005 RMK AO2 SLP175 T03000233
KMIA 121453Z 10005KT 10SM FEW025 FEW110 SCT150 BKN200 30/24 A3004 RMK AO2 LTG DSNT N SLP174 CB DSNT NW-N 60058 T03000239 53006
KMIA 121353Z 13004KT 10SM SCT025 SCT110 BKN160 BKN250 29/25 A3004 RMK AO2 RAE23 TSE23 SLP171 CB DSNT NW-NE P0002 T02890250 $
KMIA 121324Z COR 31003KT 10SM FEW020CB SCT044 BKN110 BKN190 BKN250 28/26 A3003 RMK AO2 RAE23 TSE23 CB W-NW-DSNT NE MOV NW P0002 T02780256 $
KMIA 121253Z COR 28003KT 6SM -TSRA SCT020CB BKN030 BKN070 BKN250 27/25 A3004 RMK AO2 RAB09 TSB31 SLP171 OCNL LTGICCG AT AP SW-NW TS AT AP SW-NW MOV NW CB ALQDS MOV NW P0056 T02720250 $
KMIA 121242Z 00000KT 6SM R09/4500VP6000FT +TSRA BR SCT020CB BKN050 BKN250 26/24 A3004 RMK AO2 RAB09 TSB31 OCNL LTGICCG AT AP SW-NW TS SW-NW MOV NW P0048 T02610244
KMIA 121231Z VRB03G25KT 5SM R09/1800VP6000FT +TSRA SCT010 BKN020CB BKN250 26/23 A3004 RMK AO2 RAB09 TSB31 OCNL LTGICCG S-W TS S-W MOV NW P0027 T02610233
KMIA 121209Z 11004KT 7SM -RA BKN024CB BKN055 BKN250 29/25 A3004 RMK AO2 RAB09 CB OHD MOV NW P0000 T02940250
KMIA 121153Z 13004KT 10SM SCT024CB BKN055 BKN250 29/25 A3003 RMK AO2 SLP167 CB ALQDS MOV NW 70001 T02940250 10294 20278 53014
KMIA 121053Z 11004KT 10SM FEW022 SCT070 BKN250 28/25 A3001 RMK AO2 SLP161 CB DSNT N-E-S MOV NW T02830250
KMIA 120953Z 12005KT 10SM SCT022 SCT070 SCT200 BKN250 28/24 A2999 RMK AO2 SLP157 T02830244
KMIA 120853Z 13004KT 10SM FEW022 FEW250 28/24 A2998 RMK AO2 SLP153 T02830244 58007
KMIA 120753Z 09004KT 10SM FEW022 SCT250 29/25 A3000 RMK AO2 SLP157 T02890250
KMIA 120653Z 10005KT 10SM FEW024 SCT250 29/24 A3000 RMK AO2 SLP158 T02890244
KMIA 120553Z 11007KT 10SM FEW027 BKN250 29/24 A3001 RMK AO2 SLP161 T02890244 10300 20289 56007
KMIA 120453Z 11007KT 10SM FEW027 SCT250 29/24 A3001 RMK AO2 SLP162 T02940244 403440278
KMIA 120353Z 11009KT 10SM FEW027 29/24 A3000 RMK AO2 SLP160 T02940239
KMIA 120253Z 09006KT 10SM FEW027 SCT032 SCT250 29/24 A3003 RMK AO2 SLP168 T02940244 51012
KMIA 120153Z 09005KT 10SM FEW028 SCT250 29/24 A3002 RMK AO2 SLP166 OCNL LTGICCG DSNT NW CB DSNT NW T02940239
KMIA 120053Z 11007KT 10SM SCT022 SCT250 29/23 A3002 RMK AO2 LTG DSNT NW SLP164 OCNL LTGIC DSNT NW CB DSNT NW T02940233
KMIA 112353Z 10009KT 10SM FEW028 FEW150 SCT250 30/23 A2999 RMK AO2 SLP156 T03000233 10339 20300 53007
KMIA 112253Z 10009KT 10SM FEW030 FEW080 SCT150 BKN250 31/24 A2998 RMK AO2 SLP151 T03110239
KMIA 112153Z 11008KT 10SM SCT035 SCT150 BKN250 31/23 A2997 RMK AO2 SLP150 T03110233
KMIA 112053Z 13010KT 10SM FEW038 FEW100 BKN250 32/23 A2997 RMK AO2 SLP149 CB DSNT SE AND SW T03220233 58019
KMIA 111953Z 13008KT 10SM SCT040 SCT100 BKN250 33/23 A2999 RMK AO2 SLP155 CB DSNT SE AND SW-W T03280233
KMIA 111853Z COR 07010G15KT 10SM FEW040 FEW080 SCT250 33/23 A3001 RMK AO2 LTG DSNT SW AND W SLP164 CB DSNT SW-NW T03330228
KMIA 111753Z 10011G15KT 10SM FEW038 SCT080 BKN250 33/22 A3003 RMK AO2 LTG DSNT W AND NW SLP168 CB DSNT W-N 60001 T03330217 10344 20289 58006
KMIA 111731Z 11009G15KT 080V140 10SM FEW038CB FEW045 SCT080 BKN250 33/22 A3003 RMK AO2 LTG DSNT N AND W CB DSNT SW-NW-N MOV STNRY T03330222
KMIA 111708Z 11009KT 10SM VCTS SCT038CB SCT045 SCT080 BKN250 33/21 A3004 RMK AO2 LTG DSNT N CB W-DSNT N MOV W T03330211
KMIA 111653Z 09011G16KT 10SM SCT038CB SCT045 SCT080 BKN250 33/22 A3004 RMK AO2 SLP172 CB W-DSNT N MOV W T03330217
KMIA 111553Z 00000KT 10SM SCT030 BKN050 BKN090 31/24 A3004 RMK AO2 LTG DSNT N RAB06E33 SLP174 CB DSNT N-NE MOV STNRY P0001 T03110244
KMIA 111453Z 00000KT 10SM SCT028 BKN035 BKN070 BKN250 31/24 A3004 RMK AO2 SLP174 T03060239 51007
KMIA 111353Z VRB05KT 10SM SCT024 BKN250 31/24 A3004 RMK AO2 SLP172 T03110239
KMIA 111253Z 00000KT 10SM FEW020 SCT250 30/25 A3003 RMK AO2 SLP170 T03000250
KMIA 111153Z VRB05KT 10SM FEW020 FEW250 29/25 A3002 RMK AO2 SLP167 T02890250 10289 20278 53009
KMIA 111053Z 02005KT 10SM FEW025 FEW250 28/25 A3001 RMK AO2 SLP161 T02830250
KMIA 110953Z 03003KT 10SM FEW027 SCT250 28/25 A3000 RMK AO2 SLP158 T02830250
KMIA 110853Z 00000KT 10SM SCT027 SCT250 28/24 A3000 RMK AO2 SLP158 T02830244 56008
KMIA 110753Z 00000KT 10SM SCT035 SCT055 BKN250 28/24 A3000 RMK AO2 SLP159 T02780244
KMIA 110653Z 00000KT 10SM SCT023 BKN250 28/24 A3000 RMK AO2 SLP160 T02830244
KMIA 110553Z 00000KT 10SM SCT027 SCT250 28/24 A3002 RMK AO2 SLP166 T02830244 10300 20278 58002
KMIA 110453Z 00000KT 10SM FEW030 SCT250 28/24 A3003 RMK AO2 SLP169 T02830244 403390272
KMIA 110353Z COR 09007KT 10SM FEW030 SCT250 29/24 A3003 RMK AO2 SLP170 T02890244
KMIA 110253Z 09006KT 10SM FEW025 SCT200 BKN250 29/24 A3003 RMK AO2 SLP168 T02890244 50001
KMIA 110153Z 09006KT 10SM FEW027 BKN200 29/24 A3004 RMK AO2 SLP171 T02890239
KMIA 110053Z 10006KT 10SM FEW027 BKN110 BKN250 30/24 A3004 RMK AO2 SLP171 T03000244
KMIA 102353Z 09007KT 10SM FEW032 BKN110 BKN150 BKN250 30/24 A3002 RMK AO2 SLP166 CB DSNT SW-NW T03000239 10333 20300 55001
KMIA 102253Z 07007KT 10SM SCT032 BKN120 BKN160 BKN250 30/23 A3002 RMK AO2 LTG DSNT W SLP165 CB DSNT W-NW T03000233
KMIA 102153Z 07011KT 10SM FEW033 BKN120 BKN250 32/23 A3002 RMK AO2 LTG DSNT W SLP165 CB DSNT SW-NW T03170233
KMIA 102053Z 09012KT 10SM SCT033 BKN048 BKN250 32/24 A3003 RMK AO2 LTG DSNT SW-NW SLP168 CB DSNT SW-NW T03170239 56015
KMIA 101953Z 08010KT 10SM BKN038 BKN048 BKN250 32/24 A3004 RMK AO2 SLP173 CB DSNT SW AND NW T03220239
KMIA 101853Z 10010G17KT 10SM SCT036 BKN047 BKN120 BKN250 33/24 A3005 RMK AO2 LTG DSNT W SLP177 CB DSNT NE AND W T03280239